Time;durP1;ratioP1;P1;durP2;ratioP2;P2;SDS_P1;SDS_P2;PMS_P1;PMS_P2;Temp;Humidity;BMP_temperature;BMP_pressure;BME280_temperature;BME280_humidity;BME280_pressure;Samples;Min_cycle;Max_cycle;Signal;HPM_P1;HPM_P2
2021/09/26 00:01:55;;;;;;;;;5.33;5.00;;;;;19.27;65.58;98814.41;4826509;28;103837;-93
2021/09/26 00:04:22;;;;;;;;;5.33;5.00;;;;;19.27;65.59;98819.91;4823479;28;102517;-93
2021/09/26 00:06:49;;;;;;;;;7.67;7.67;;;;;19.28;65.48;98812.47;4820938;28;102596;-93
2021/09/26 00:09:16;;;;;;;;;5.00;5.00;;;;;19.27;65.63;98814.41;4841190;28;106467;-93
2021/09/26 00:11:43;;;;;;;;;6.00;5.00;;;;;19.27;65.83;98814.41;4839543;28;103377;-93
2021/09/26 00:14:11;;;;;;;;;4.33;4.33;;;;;19.27;65.71;98822.63;4836052;28;102691;-94
2021/09/26 00:16:38;;;;;;;;;5.00;5.00;;;;;19.24;65.23;98831.34;4847857;28;102415;-93
2021/09/26 00:19:05;;;;;;;;;5.00;5.00;;;;;19.27;65.69;98814.41;4831014;28;105593;-94
2021/09/26 00:21:35;;;;;;;;;4.67;4.00;;;;;19.26;65.60;98823.72;4835305;28;109097;-93
2021/09/26 00:24:03;;;;;;;;;4.67;4.33;;;;;19.26;65.63;98811.91;4833062;28;102520;-93
2021/09/26 00:26:30;;;;;;;;;5.00;5.00;;;;;19.24;65.43;98814.91;4837064;28;105911;-92
2021/09/26 00:28:57;;;;;;;;;4.67;4.67;;;;;19.25;65.46;98813.81;4838974;28;102228;-93
2021/09/26 00:31:25;;;;;;;;;3.67;3.67;;;;;19.26;65.42;98799.03;4834762;28;104005;-93
2021/09/26 00:33:52;;;;;;;;;6.00;5.00;;;;;19.26;65.44;98809.16;4830910;28;102595;-93
2021/09/26 00:36:19;;;;;;;;;5.67;5.00;;;;;19.26;65.39;98810.00;4832215;28;101990;-93
2021/09/26 00:38:46;;;;;;;;;2.33;2.33;;;;;19.26;65.53;98810.00;4833434;28;111102;-93
2021/09/26 00:41:13;;;;;;;;;5.67;5.67;;;;;19.27;65.40;98811.66;4830883;28;104307;-92
2021/09/26 00:43:40;;;;;;;;;5.00;5.00;;;;;19.27;65.50;98808.09;4851531;28;102197;-93
2021/09/26 00:46:07;;;;;;;;;5.00;4.67;;;;;19.27;65.35;98803.44;4838034;28;102047;-88
2021/09/26 00:48:34;;;;;;;;;6.00;5.67;;;;;19.26;65.66;98810.00;4835084;28;102708;-93
2021/09/26 00:51:10;;;;;;;;;5.33;5.00;;;;;19.27;65.41;98811.66;4838610;28;108834;-87
2021/09/26 00:53:40;;;;;;;;;5.00;5.00;;;;;19.26;65.54;98812.75;4828043;28;102123;-87
2021/09/26 00:56:07;;;;;;;;;5.33;5.00;;;;;19.26;65.52;98818.22;4831936;28;102028;-87
2021/09/26 00:58:34;;;;;;;;;5.00;5.00;;;;;19.25;65.59;98827.53;4853280;28;102154;-87
2021/09/26 01:01:01;;;;;;;;;6.00;5.00;;;;;19.24;65.57;98808.56;4803862;28;104402;-87
2021/09/26 01:03:28;;;;;;;;;5.00;5.00;;;;;19.25;65.59;98816.56;4776804;28;103689;-87
2021/09/26 01:06:19;;;;;;;;;6.33;5.33;;;;;19.26;65.63;98815.50;4819629;28;102599;-87
2021/09/26 01:09:04;;;;;;;;;3.33;3.33;;;;;19.25;65.43;98811.06;4800612;28;102249;-87
2021/09/26 01:11:39;;;;;;;;;5.67;5.00;;;;;19.25;65.40;98811.06;4821390;28;104305;-87
2021/09/26 01:14:28;;;;;;;;;3.67;3.67;;;;;19.24;65.43;98806.66;4810351;28;104872;-87
2021/09/26 01:16:57;;;;;;;;;5.33;4.00;;;;;19.26;65.11;98818.22;4819332;28;102289;-86
2021/09/26 01:19:43;;;;;;;;;4.67;4.00;;;;;19.25;64.99;98813.81;4839556;28;102266;-87
2021/09/26 01:22:13;;;;;;;;;4.00;4.00;;;;;19.25;65.81;98810.25;4816534;28;108665;-87
2021/09/26 01:24:55;;;;;;;;;5.67;4.67;;;;;19.26;65.46;98806.44;4818898;28;102782;-87
2021/09/26 01:27:37;;;;;;;;;4.67;4.67;;;;;19.24;65.40;98814.91;4836559;28;102184;-87
2021/09/26 01:30:34;;;;;;;;;5.00;5.00;;;;;19.25;65.28;98810.25;4839515;28;102708;-87
2021/09/26 01:33:20;;;;;;;;;5.67;5.00;;;;;19.25;65.15;98810.25;4822290;28;108749;-87
2021/09/26 01:36:00;;;;;;;;;4.33;4.33;;;;;19.24;65.49;98809.41;4814455;28;106253;-87
2021/09/26 01:38:40;;;;;;;;;4.00;4.00;;;;;19.25;65.53;98815.72;4817417;28;102592;-87
2021/09/26 01:41:46;;;;;;;;;3.33;3.33;;;;;19.23;65.53;98813.22;4832982;28;102578;-87
2021/09/26 01:44:41;;;;;;;;;7.00;6.00;;;;;19.22;65.50;98811.59;4844806;28;109407;-87
2021/09/26 01:47:10;;;;;;;;;4.67;4.67;;;;;19.22;65.46;98811.59;4826575;28;102247;-87
2021/09/26 01:49:52;;;;;;;;;4.67;4.00;;;;;19.23;65.48;98809.69;4831018;28;103832;-87
2021/09/26 01:52:22;;;;;;;;;7.00;5.67;;;;;19.23;65.62;98810.47;4834976;28;102548;-87
2021/09/26 01:54:49;;;;;;;;;6.00;6.00;;;;;19.23;65.64;98813.22;4839352;28;103938;-87
2021/09/26 01:57:19;;;;;;;;;5.33;5.33;;;;;19.23;65.73;98807.75;4837019;28;102211;-87
2021/09/26 01:59:51;;;;;;;;;4.00;3.67;;;;;19.21;65.59;98804.44;4827244;28;102545;-87
2021/09/26 02:02:18;;;;;;;;;4.00;4.00;;;;;19.21;65.31;98804.44;4823710;28;102262;-87
2021/09/26 02:04:47;;;;;;;;;4.33;4.33;;;;;19.22;65.68;98811.59;4819305;28;104256;-87
2021/09/26 02:07:14;;;;;;;;;7.00;6.33;;;;;19.22;65.47;98811.59;4840684;28;102934;-88
2021/09/26 02:09:42;;;;;;;;;5.00;5.00;;;;;19.22;65.70;98811.59;4813792;28;102342;-87
2021/09/26 02:12:09;;;;;;;;;4.67;4.67;;;;;19.22;65.59;98816.25;4825102;28;103550;-87
2021/09/26 02:14:38;;;;;;;;;6.67;6.00;;;;;19.22;65.63;98811.59;4839064;28;109021;-87
2021/09/26 02:17:06;;;;;;;;;5.00;4.00;;;;;19.22;65.54;98816.25;4828189;28;102908;-87
2021/09/26 02:19:34;;;;;;;;;5.00;5.00;;;;;19.22;65.54;98818.97;4836234;28;102214;-87
2021/09/26 02:22:03;;;;;;;;;6.00;5.00;;;;;19.21;65.55;98820.88;4856272;28;104810;-87
2021/09/26 02:24:30;;;;;;;;;7.33;6.00;;;;;19.21;65.74;98823.63;4854171;28;106202;-87
2021/09/26 02:26:57;;;;;;;;;4.00;4.00;;;;;19.21;65.78;98829.13;4834128;28;102272;-87
2021/09/26 02:29:24;;;;;;;;;5.00;5.00;;;;;19.22;65.82;98833.53;4834841;28;107318;-87
2021/09/26 02:31:51;;;;;;;;;6.00;5.67;;;;;19.22;65.68;98840.91;4850603;28;103012;-87
2021/09/26 02:34:18;;;;;;;;;5.00;4.00;;;;;19.21;65.59;98834.59;4855279;28;103858;-87
2021/09/26 02:36:45;;;;;;;;;6.00;6.00;;;;;19.20;65.79;98835.66;4838901;28;102641;-87
2021/09/26 02:39:16;;;;;;;;;6.33;6.00;;;;;19.20;65.94;98827.44;4845293;28;102667;-87
2021/09/26 02:42:14;;;;;;;;;6.67;6.33;;;;;19.17;65.78;98822.47;4844081;28;102244;-87
2021/09/26 02:44:51;;;;;;;;;7.00;5.67;;;;;19.21;65.68;98837.34;4845620;28;109653;-87
2021/09/26 02:47:22;;;;;;;;;5.00;5.00;;;;;19.21;65.79;98840.09;4842545;28;102260;-87
2021/09/26 02:49:49;;;;;;;;;7.00;5.00;;;;;19.21;65.76;98828.28;4825800;28;102299;-87
2021/09/26 02:52:16;;;;;;;;;5.33;5.33;;;;;19.20;65.88;98830.19;4828873;28;102318;-87
2021/09/26 02:54:43;;;;;;;;;6.00;5.00;;;;;19.19;65.62;98831.25;4825212;28;104058;-88
2021/09/26 02:57:10;;;;;;;;;6.67;6.00;;;;;19.20;65.75;98832.94;4826723;28;103179;-87
2021/09/26 02:59:37;;;;;;;;;6.33;4.33;;;;;19.19;65.80;98831.25;4848476;28;104513;-87
2021/09/26 03:02:05;;;;;;;;;5.00;5.00;;;;;19.19;65.97;98836.75;4843427;28;102308;-87
2021/09/26 03:04:32;;;;;;;;;5.00;4.67;;;;;19.20;65.89;98841.16;4848649;28;103222;-87
2021/09/26 03:06:59;;;;;;;;;4.67;3.67;;;;;19.18;65.89;98835.91;4856464;28;104176;-87
2021/09/26 03:09:29;;;;;;;;;5.67;5.33;;;;;19.16;65.93;98829.88;4843554;28;102890;-87
2021/09/26 03:11:56;;;;;;;;;5.00;5.00;;;;;19.18;65.79;98832.38;4851316;28;102221;-87
2021/09/26 03:14:23;;;;;;;;;5.00;5.00;;;;;19.17;65.93;98838.94;4863556;28;104180;-87
2021/09/26 03:16:51;;;;;;;;;4.00;4.00;;;;;19.16;65.71;98840.84;4844200;28;102584;-87
2021/09/26 03:19:18;;;;;;;;;6.67;5.33;;;;;19.16;65.92;98840.00;4841349;28;102145;-87
2021/09/26 03:21:45;;;;;;;;;7.00;6.00;;;;;19.17;66.04;98842.50;4847889;28;102429;-88
2021/09/26 03:24:12;;;;;;;;;7.00;5.00;;;;;19.17;66.07;98838.94;4850478;28;104157;-87
2021/09/26 03:26:39;;;;;;;;;5.00;5.00;;;;;19.16;65.93;98840.00;4851274;28;102278;-87
2021/09/26 03:29:05;;;;;;;;;4.00;3.67;;;;;19.16;65.77;98837.25;4845663;28;102298;-88
2021/09/26 03:31:32;;;;;;;;;5.00;4.33;;;;;19.16;66.09;98837.25;4847204;28;102622;-87
2021/09/26 03:34:00;;;;;;;;;7.33;5.67;;;;;19.15;65.94;98833.69;4850590;28;104119;-87
2021/09/26 03:36:27;;;;;;;;;5.67;5.00;;;;;19.15;66.18;98843.81;4842417;28;103508;-88
2021/09/26 03:38:54;;;;;;;;;4.00;4.00;;;;;19.15;65.95;98844.66;4842821;28;102686;-88
2021/09/26 03:41:21;;;;;;;;;5.00;4.00;;;;;19.16;65.97;98846.31;4849223;28;102330;-87
2021/09/26 03:43:48;;;;;;;;;6.00;5.00;;;;;19.15;66.17;98850.13;4850502;28;104096;-87
2021/09/26 03:46:15;;;;;;;;;6.00;5.33;;;;;19.14;65.95;98842.97;4853108;28;104080;-88
2021/09/26 03:48:42;;;;;;;;;6.67;5.33;;;;;19.15;65.73;98852.03;4858775;28;102556;-87
2021/09/26 03:51:09;;;;;;;;;5.00;5.00;;;;;19.15;65.71;98843.81;4849026;28;102980;-87
2021/09/26 03:53:36;;;;;;;;;5.00;5.00;;;;;19.14;65.47;98837.50;4845415;28;104114;-87
2021/09/26 03:56:03;;;;;;;;;2.33;2.33;;;;;19.12;65.94;98839.69;4855571;28;102578;-87
2021/09/26 03:58:30;;;;;;;;;5.00;5.00;;;;;19.13;65.98;98843.25;4846170;28;104921;-87
2021/09/26 04:00:57;;;;;;;;;6.00;4.67;;;;;19.13;65.68;98841.34;4849705;28;102256;-87
2021/09/26 04:03:24;;;;;;;;;6.00;5.00;;;;;19.13;65.75;98846.81;4859173;28;104155;-93
2021/09/26 04:05:51;;;;;;;;;5.00;5.00;;;;;19.12;66.07;98845.16;4848670;28;102579;-93
2021/09/26 04:08:18;;;;;;;;;5.33;5.33;;;;;19.11;65.99;98848.97;4850160;28;102373;-93
2021/09/26 04:10:45;;;;;;;;;6.00;5.00;;;;;19.12;65.95;98849.81;4856506;28;102913;-93
2021/09/26 04:13:12;;;;;;;;;5.33;5.33;;;;;19.13;65.70;98848.72;4826235;28;108751;-93
2021/09/26 04:15:39;;;;;;;;;5.33;5.00;;;;;19.13;66.14;98849.56;4823538;28;102468;-93
2021/09/26 04:18:06;;;;;;;;;5.00;5.00;;;;;19.11;65.78;98848.13;4822864;28;103374;-93
2021/09/26 04:20:33;;;;;;;;;5.67;5.67;;;;;19.11;66.19;98848.13;4821619;28;102390;-93
2021/09/26 04:23:00;;;;;;;;;7.00;6.33;;;;;19.13;65.76;98854.22;4824930;28;104053;-93
2021/09/26 04:25:27;;;;;;;;;4.33;4.33;;;;;19.12;65.95;98855.28;4829375;28;102339;-93
2021/09/26 04:27:58;;;;;;;;;3.67;3.67;;;;;19.12;66.08;98849.81;4823633;28;104246;-94
2021/09/26 04:30:25;;;;;;;;;5.00;5.00;;;;;19.12;65.95;98844.31;4826958;28;102235;-93
2021/09/26 04:32:52;;;;;;;;;4.67;4.00;;;;;19.11;65.98;98848.13;4825970;28;110152;-93
2021/09/26 04:35:19;;;;;;;;;5.00;5.00;;;;;19.10;66.09;98857.44;4830561;28;102170;-93
2021/09/26 04:37:46;;;;;;;;;4.00;4.00;;;;;19.08;66.22;98852.22;4838079;28;102509;-93
2021/09/26 04:40:13;;;;;;;;;5.33;4.67;;;;;19.10;66.10;98858.28;4828522;28;102238;-93
2021/09/26 04:42:40;;;;;;;;;4.67;4.00;;;;;19.06;65.95;98851.63;4813712;28;103836;-93
2021/09/26 04:45:09;;;;;;;;;6.00;5.33;;;;;19.09;65.88;98864.03;4821397;28;104065;-93
2021/09/26 04:47:37;;;;;;;;;6.00;5.00;;;;;19.09;65.82;98866.75;4825786;28;102751;-93
2021/09/26 04:50:05;;;;;;;;;5.00;5.00;;;;;19.08;66.12;98870.56;4822996;28;103678;-93
2021/09/26 04:52:35;;;;;;;;;6.00;5.33;;;;;19.09;66.20;98866.75;4833810;28;104351;-93
2021/09/26 04:55:03;;;;;;;;;5.00;4.00;;;;;19.08;65.75;98865.09;4805494;28;102309;-93
2021/09/26 04:57:30;;;;;;;;;5.00;5.00;;;;;19.07;66.29;98860.69;4820811;28;102601;-93
2021/09/26 04:59:57;;;;;;;;;5.00;4.00;;;;;19.08;65.99;98865.94;4816949;28;102377;-93
2021/09/26 05:02:24;;;;;;;;;4.33;4.00;;;;;19.08;66.19;98856.88;4820240;28;104338;-92
2021/09/26 05:04:52;;;;;;;;;4.67;4.33;;;;;19.07;65.80;98864.25;4826797;28;102198;-93
2021/09/26 05:07:20;;;;;;;;;7.67;7.00;;;;;19.05;66.21;98862.84;4831971;28;102253;-90
2021/09/26 05:09:47;;;;;;;;;6.67;5.00;;;;;19.09;65.99;98869.50;4836617;28;102204;-93
2021/09/26 05:12:14;;;;;;;;;5.33;5.00;;;;;19.09;66.02;98872.25;4826362;28;110077;-93
2021/09/26 05:14:41;;;;;;;;;4.00;4.00;;;;;19.06;66.03;98868.06;4851617;28;102213;-93
2021/09/26 05:17:08;;;;;;;;;5.00;4.67;;;;;19.08;66.08;98881.53;4850147;28;102781;-93
2021/09/26 05:19:37;;;;;;;;;5.67;5.67;;;;;19.06;66.06;98872.72;4857385;28;102878;-93
2021/09/26 05:22:05;;;;;;;;;3.33;3.33;;;;;19.07;65.83;98879.88;4848078;28;104080;-93
2021/09/26 05:24:32;;;;;;;;;6.00;6.00;;;;;19.06;66.23;98876.28;4847540;28;103058;-92
2021/09/26 05:26:59;;;;;;;;;6.33;5.67;;;;;19.07;66.15;98879.88;4858628;28;102481;-93
2021/09/26 05:29:26;;;;;;;;;5.00;5.00;;;;;19.06;66.13;98875.47;4854661;28;102614;-93
2021/09/26 05:31:52;;;;;;;;;4.33;4.00;;;;;19.04;66.12;98881.22;4835318;28;104354;-93
2021/09/26 05:34:20;;;;;;;;;4.00;4.00;;;;;19.07;65.84;98882.63;4863607;28;102189;-92
2021/09/26 05:36:47;;;;;;;;;5.00;5.00;;;;;19.04;65.94;98886.69;4841842;28;102617;-92
2021/09/26 05:39:14;;;;;;;;;5.00;5.00;;;;;19.06;65.99;98887.25;4847953;28;104836;-93
2021/09/26 05:41:41;;;;;;;;;3.00;3.00;;;;;19.07;65.83;98890.84;4854948;28;106896;-93
2021/09/26 05:44:08;;;;;;;;;4.00;3.33;;;;;19.06;65.79;98895.47;4852859;28;102217;-93
2021/09/26 05:46:35;;;;;;;;;5.00;5.00;;;;;19.05;65.85;98882.84;4851403;28;102876;-93
2021/09/26 05:49:02;;;;;;;;;5.00;4.33;;;;;19.06;66.14;98889.16;4851701;28;102300;-93
2021/09/26 05:51:29;;;;;;;;;5.33;5.33;;;;;19.05;66.00;98888.34;4850949;28;104183;-93
2021/09/26 05:53:56;;;;;;;;;5.00;5.00;;;;;19.07;66.02;98896.31;4853090;28;102426;-93
2021/09/26 05:56:23;;;;;;;;;5.00;5.00;;;;;19.05;65.94;98893.81;4841074;28;102195;-92
2021/09/26 05:58:50;;;;;;;;;5.67;5.00;;;;;19.06;66.05;98894.66;4847925;28;104157;-88
2021/09/26 06:01:17;;;;;;;;;5.00;5.00;;;;;19.04;65.97;98891.34;4832250;28;104054;-92
2021/09/26 06:03:44;;;;;;;;;4.33;4.33;;;;;19.06;66.21;98886.44;4840236;28;102722;-93
2021/09/26 06:06:12;;;;;;;;;7.00;5.67;;;;;19.06;65.86;98889.16;4849751;28;102348;-93
2021/09/26 06:08:39;;;;;;;;;6.00;5.00;;;;;19.05;65.93;98892.97;4839496;28;102398;-93
2021/09/26 06:11:06;;;;;;;;;6.67;4.33;;;;;19.05;65.77;98892.97;4848240;28;104808;-93
2021/09/26 06:13:33;;;;;;;;;4.50;4.00;;;;;19.05;65.94;98892.97;4844743;28;102310;-93
2021/09/26 06:16:02;;;;;;;;;5.33;5.00;;;;;19.05;65.94;98898.47;4837333;28;102364;-93
2021/09/26 06:18:30;;;;;;;;;5.00;4.33;;;;;19.05;65.76;98898.47;4829308;28;104724;-93
2021/09/26 06:20:57;;;;;;;;;6.00;5.00;;;;;19.04;66.01;98902.31;4832661;28;104033;-93
2021/09/26 06:23:24;;;;;;;;;4.00;4.00;;;;;19.04;65.62;98905.03;4832899;28;102939;-93
2021/09/26 06:25:51;;;;;;;;;6.33;6.00;;;;;19.05;65.96;98898.47;4830682;28;102465;-92
2021/09/26 06:28:18;;;;;;;;;5.00;5.00;;;;;19.06;65.86;98916.56;4839317;28;102568;-93
2021/09/26 06:30:45;;;;;;;;;5.67;5.00;;;;;19.05;65.71;98910.25;4835399;28;108795;-92
2021/09/26 06:33:12;;;;;;;;;4.00;4.00;;;;;19.03;65.77;98908.84;4829795;28;102647;-93
2021/09/26 06:35:39;;;;;;;;;5.00;4.00;;;;;19.06;65.76;98917.41;4827650;28;102697;-93
2021/09/26 06:38:06;;;;;;;;;4.00;4.00;;;;;19.08;65.69;98912.53;4835786;28;102286;-93
2021/09/26 06:40:33;;;;;;;;;6.00;5.00;;;;;19.07;65.36;98910.03;4831215;28;104048;-92
2021/09/26 06:43:00;;;;;;;;;6.00;5.67;;;;;19.07;65.72;98912.75;4836038;28;105412;-92
2021/09/26 06:45:27;;;;;;;;;6.00;5.00;;;;;19.07;65.49;98912.75;4835108;28;102265;-93
2021/09/26 06:47:54;;;;;;;;;6.33;6.00;;;;;19.08;65.69;98908.94;4828380;28;102553;-93
2021/09/26 06:50:21;;;;;;;;;5.33;5.33;;;;;19.06;65.57;98906.44;4829958;28;104095;-92
2021/09/26 06:52:49;;;;;;;;;4.00;4.00;;;;;19.07;65.71;98916.34;4827858;28;102932;-93
2021/09/26 06:55:15;;;;;;;;;6.33;5.33;;;;;19.08;65.62;98919.91;4827955;28;102402;-93
2021/09/26 06:57:42;;;;;;;;;4.00;4.00;;;;;19.07;65.46;98918.25;4834224;28;106069;-92
2021/09/26 07:00:10;;;;;;;;;8.33;5.00;;;;;19.08;65.47;98922.66;4835609;28;104080;-92
2021/09/26 07:02:37;;;;;;;;;5.33;5.00;;;;;19.05;65.62;98907.53;4828308;28;102360;-92
2021/09/26 07:05:05;;;;;;;;;4.67;4.67;;;;;19.08;65.41;98917.16;4836698;28;103939;-93
2021/09/26 07:07:32;;;;;;;;;5.00;5.00;;;;;19.08;65.76;98926.22;4832556;28;102200;-92
2021/09/26 07:09:59;;;;;;;;;6.00;6.00;;;;;19.09;65.28;98924.31;4829253;28;104040;-93
2021/09/26 07:12:26;;;;;;;;;4.33;3.33;;;;;19.08;65.66;98928.97;4832167;28;102107;-92
2021/09/26 07:14:53;;;;;;;;;6.00;6.00;;;;;19.09;64.70;98935.28;4833839;28;102271;-93
2021/09/26 07:17:20;;;;;;;;;4.00;4.00;;;;;19.10;64.69;98934.19;4838618;28;111953;-89
2021/09/26 07:19:47;;;;;;;;;3.00;3.00;;;;;19.11;64.75;98927.63;4840780;28;103756;-93
2021/09/26 07:22:18;;;;;;;;;6.67;6.00;;;;;19.11;65.23;98930.38;4814460;28;102228;-93
2021/09/26 07:24:45;;;;;;;;;4.00;3.67;;;;;19.11;65.38;98928.47;4837170;28;104124;-92
2021/09/26 07:27:15;;;;;;;;;6.00;6.00;;;;;19.11;65.26;98930.38;4807998;28;102801;-92
2021/09/26 07:29:42;;;;;;;;;6.33;5.67;;;;;19.12;65.12;98932.88;4825473;28;103781;-92
2021/09/26 07:32:10;;;;;;;;;4.67;4.67;;;;;19.14;64.80;98938.09;4831812;28;103974;-92
2021/09/26 07:34:37;;;;;;;;;5.67;5.67;;;;;19.13;64.61;98933.72;4825180;28;102223;-93
2021/09/26 07:37:04;;;;;;;;;4.67;4.67;;;;;19.15;64.79;98937.03;4815311;28;104169;-95
2021/09/26 07:39:31;;;;;;;;;6.00;5.67;;;;;19.13;64.56;98933.72;4836534;28;103585;-96
2021/09/26 07:41:58;;;;;;;;;4.67;4.33;;;;;19.14;64.28;98941.66;4803185;28;102593;-96
2021/09/26 07:44:25;;;;;;;;;4.67;4.67;;;;;19.15;64.70;98931.53;4839490;28;103097;-95
2021/09/26 07:46:52;;;;;;;;;5.33;3.33;;;;;19.15;64.91;98937.03;4806103;28;104866;-90
2021/09/26 07:49:19;;;;;;;;;5.00;4.00;;;;;19.16;64.70;98938.69;4806650;28;104099;-92
2021/09/26 07:51:46;;;;;;;;;5.00;5.00;;;;;19.16;64.64;98938.69;4812679;28;102440;-92
2021/09/26 07:54:15;;;;;;;;;4.00;4.00;;;;;19.16;65.06;98945.00;4823120;28;102351;-95
2021/09/26 07:56:43;;;;;;;;;5.00;5.00;;;;;19.17;64.82;98945.84;4807167;28;102515;-96
2021/09/26 07:59:11;;;;;;;;;5.00;5.00;;;;;19.17;64.78;98945.84;4822843;28;104100;-95
2021/09/26 08:01:38;;;;;;;;;4.33;4.33;;;;;19.18;64.58;98947.50;4832483;28;102792;-95
2021/09/26 08:04:07;;;;;;;;;5.00;5.00;;;;;19.18;64.89;98942.03;4823627;28;102666;-94
2021/09/26 08:06:34;;;;;;;;;2.00;2.00;;;;;19.18;64.97;98947.50;4839017;28;102732;-95
2021/09/26 08:09:02;;;;;;;;;6.00;6.00;;;;;19.18;64.69;98948.31;4809656;28;104066;-95
2021/09/26 08:11:30;;;;;;;;;4.33;4.00;;;;;19.20;64.93;98944.50;4832988;28;102254;-95
2021/09/26 08:13:57;;;;;;;;;5.33;4.33;;;;;19.20;64.86;98936.28;4841004;28;102490;-96
2021/09/26 08:16:24;;;;;;;;;5.00;5.00;;;;;19.20;65.10;98937.09;4837905;28;102705;-92
2021/09/26 08:18:51;;;;;;;;;6.67;6.33;;;;;19.21;65.12;98935.19;4840657;28;104347;-92
2021/09/26 08:21:18;;;;;;;;;6.00;5.67;;;;;19.20;65.01;98939.84;4839758;28;102714;-92
2021/09/26 08:23:45;;;;;;;;;6.00;5.67;;;;;19.21;65.01;98937.94;4837980;28;103057;-92
2021/09/26 08:26:12;;;;;;;;;7.00;4.67;;;;;19.21;65.06;98941.53;4838955;28;102127;-93
2021/09/26 08:28:39;;;;;;;;;6.33;5.00;;;;;19.21;65.15;98936.03;4843449;28;103825;-92
2021/09/26 08:31:06;;;;;;;;;4.00;4.00;;;;;19.21;65.00;98949.75;4839158;28;102203;-92
2021/09/26 08:33:33;;;;;;;;;5.00;4.00;;;;;19.23;65.04;98946.75;4840010;28;102219;-92
2021/09/26 08:36:00;;;;;;;;;4.67;4.00;;;;;19.22;65.04;98945.94;4831971;28;102576;-92
2021/09/26 08:38:27;;;;;;;;;5.00;5.00;;;;;19.23;65.15;98944.81;4821808;28;104313;-92
2021/09/26 08:40:54;;;;;;;;;6.00;5.00;;;;;19.23;65.24;98946.75;4845128;28;104046;-91
2021/09/26 08:43:21;;;;;;;;;5.00;4.00;;;;;19.22;64.91;98940.44;4825451;28;102458;-93
2021/09/26 08:45:48;;;;;;;;;5.00;4.00;;;;;19.23;65.02;98944.81;4840677;28;103000;-94
2021/09/26 08:48:15;;;;;;;;;4.00;4.00;;;;;19.26;65.01;98952.56;4830048;28;103980;-94
2021/09/26 08:50:43;;;;;;;;;6.00;6.00;;;;;19.19;65.37;98938.19;4825167;28;102218;-90
2021/09/26 08:53:10;;;;;;;;;6.00;6.00;;;;;19.20;65.01;98945.34;4844854;28;102239;-90
2021/09/26 08:55:37;;;;;;;;;6.00;6.00;;;;;19.20;65.79;98944.50;4828635;28;103560;-88
2021/09/26 08:58:04;;;;;;;;;6.67;6.00;;;;;19.19;66.05;98949.16;4836208;28;104049;-90
2021/09/26 09:00:31;;;;;;;;;9.00;8.00;;;;;19.19;66.08;98943.66;4841614;28;102578;-90
2021/09/26 09:03:00;;;;;;;;;6.00;5.00;;;;;19.19;65.98;98938.19;4838656;28;102612;-91
2021/09/26 09:05:29;;;;;;;;;6.67;5.00;;;;;19.20;65.64;98944.50;4833070;28;102698;-89
2021/09/26 09:08:13;;;;;;;;;6.67;6.67;;;;;19.20;66.26;98928.06;4852163;28;104135;-89
2021/09/26 09:10:49;;;;;;;;;7.00;7.00;;;;;19.22;66.55;98936.88;4832842;28;103531;-89
2021/09/26 09:13:20;;;;;;;;;7.67;7.33;;;;;19.23;66.74;98942.09;4825910;28;102842;-89
2021/09/26 09:15:58;;;;;;;;;8.00;8.00;;;;;19.23;66.27;98938.53;4845407;28;102805;-89
2021/09/26 09:18:25;;;;;;;;;7.00;6.33;;;;;19.22;65.84;98945.09;4835262;28;109145;-89
2021/09/26 09:20:52;;;;;;;;;8.33;7.33;;;;;19.21;66.20;98930.56;4837092;28;102311;-90
2021/09/26 09:23:21;;;;;;;;;8.33;8.00;;;;;19.21;66.69;98941.53;4847668;28;102737;-89
2021/09/26 09:25:52;;;;;;;;;8.00;7.00;;;;;19.21;66.80;98933.28;4834419;28;102312;-89
2021/09/26 09:28:20;;;;;;;;;9.00;9.00;;;;;19.21;66.98;98936.03;4840365;28;104062;-89
2021/09/26 09:30:51;;;;;;;;;8.67;8.67;;;;;19.21;67.07;98933.28;4845361;28;102427;-89
2021/09/26 09:33:19;;;;;;;;;7.33;7.33;;;;;19.21;67.33;98924.22;4837751;28;102665;-89
2021/09/26 09:35:53;;;;;;;;;9.33;9.00;;;;;19.20;67.40;98928.88;4836073;28;104090;-89
2021/09/26 09:38:51;;;;;;;;;6.67;6.33;;;;;19.21;67.38;98925.06;4847696;28;103961;-89
2021/09/26 09:41:40;;;;;;;;;8.33;8.00;;;;;19.21;67.25;98924.22;4822502;28;103699;-90
2021/09/26 09:44:09;;;;;;;;;8.33;7.00;;;;;19.22;67.34;98932.22;4837813;28;102537;-89
2021/09/26 09:46:37;;;;;;;;;6.33;6.33;;;;;19.23;67.47;98925.63;4851854;28;113156;-90
2021/09/26 09:49:25;;;;;;;;;8.00;8.00;;;;;19.23;67.16;98922.91;4827262;28;104097;-89
2021/09/26 09:51:58;;;;;;;;;9.67;9.00;;;;;19.25;66.86;98930.88;4834157;28;103843;-89
2021/09/26 09:54:33;;;;;;;;;8.00;7.33;;;;;19.25;67.28;98926.22;4815835;28;102190;-90
2021/09/26 09:57:14;;;;;;;;;8.33;8.33;;;;;19.25;67.63;98923.50;4837427;28;102905;-89
2021/09/26 09:59:41;;;;;;;;;9.67;8.33;;;;;19.25;67.29;98926.22;4836184;28;103985;-89
2021/09/26 10:02:08;;;;;;;;;9.00;8.00;;;;;19.26;67.64;98921.59;4831816;28;102219;-90
2021/09/26 10:04:42;;;;;;;;;9.33;8.00;;;;;19.26;67.65;98925.16;4840967;28;102700;-90
2021/09/26 10:07:37;;;;;;;;;9.33;8.00;;;;;19.25;67.61;98920.75;4839618;28;102799;-90
2021/09/26 10:10:13;;;;;;;;;8.33;7.33;;;;;19.26;67.74;98922.41;4804946;28;108682;-90
2021/09/26 10:12:41;;;;;;;;;9.33;8.00;;;;;19.27;67.67;98909.53;4825509;28;102230;-90
2021/09/26 10:15:08;;;;;;;;;9.00;9.00;;;;;19.26;67.86;98910.63;4818739;28;102609;-89
2021/09/26 10:17:35;;;;;;;;;7.33;6.00;;;;;19.27;67.63;98909.53;4827975;28;102523;-90
2021/09/26 10:20:03;;;;;;;;;7.33;6.00;;;;;19.27;67.65;98913.13;4833000;28;105384;-89
2021/09/26 10:22:36;;;;;;;;;8.33;8.00;;;;;19.27;67.60;98918.59;4837286;28;102205;-89
2021/09/26 10:25:03;;;;;;;;;10.00;7.33;;;;;19.29;67.52;98912.84;4819735;28;105076;-90
2021/09/26 10:27:32;;;;;;;;;6.00;6.00;;;;;19.30;67.63;98914.50;4842254;28;102633;-89
2021/09/26 10:30:05;;;;;;;;;8.00;7.33;;;;;19.30;67.58;98909.88;4815564;28;104333;-89
2021/09/26 10:32:37;;;;;;;;;8.00;8.00;;;;;19.32;67.64;98915.91;4833610;28;102190;-89
2021/09/26 10:35:04;;;;;;;;;9.00;7.00;;;;;19.30;67.87;98898.91;4833336;28;102215;-90
2021/09/26 10:37:32;;;;;;;;;7.67;7.00;;;;;19.32;67.43;98904.94;4834660;28;102839;-89
2021/09/26 10:39:59;;;;;;;;;7.00;6.33;;;;;19.32;67.72;98907.69;4831422;28;104053;-85
2021/09/26 10:42:33;;;;;;;;;6.00;6.00;;;;;19.33;67.57;98906.63;4806974;28;103579;-90
2021/09/26 10:45:02;;;;;;;;;7.00;6.33;;;;;19.34;67.77;98908.28;4807313;28;102305;-89
2021/09/26 10:47:30;;;;;;;;;6.00;6.00;;;;;19.35;67.56;98912.69;4836369;28;102218;-89
2021/09/26 10:49:57;;;;;;;;;7.67;7.67;;;;;19.34;67.73;98905.53;4824394;28;105294;-90
2021/09/26 10:52:35;;;;;;;;;7.33;7.00;;;;;19.35;67.49;98909.94;4829891;28;103924;-89
2021/09/26 10:55:14;;;;;;;;;7.67;7.00;;;;;19.37;66.51;98907.78;4834166;28;102803;-91
2021/09/26 10:57:45;;;;;;;;;9.33;7.33;;;;;19.44;66.10;98907.66;4839809;28;102444;-88
2021/09/26 11:00:36;;;;;;;;;5.67;5.67;;;;;19.52;65.73;98904.47;4835997;28;104135;-89
2021/09/26 11:03:14;;;;;;;;;7.33;6.00;;;;;19.59;65.33;98903.22;4818158;28;102713;-89
2021/09/26 11:05:51;;;;;;;;;9.00;6.00;;;;;19.64;65.22;98898.88;4839353;28;102487;-90
2021/09/26 11:08:41;;;;;;;;;7.00;6.67;;;;;19.71;64.85;98897.63;4830470;28;102347;-89
2021/09/26 11:11:09;;;;;;;;;6.67;6.67;;;;;19.74;64.14;98893.53;4816499;28;109036;-89
2021/09/26 11:13:37;;;;;;;;;7.00;6.00;;;;;19.79;64.05;98896.34;4836617;28;102574;-90
2021/09/26 11:16:10;;;;;;;;;6.00;6.00;;;;;19.82;63.99;98893.09;4835225;28;102316;-90
2021/09/26 11:18:44;;;;;;;;;8.00;7.00;;;;;19.85;63.59;98884.38;4836377;28;102442;-89
2021/09/26 11:21:42;;;;;;;;;7.00;7.00;;;;;19.89;63.40;98889.09;4835840;28;103971;-89
2021/09/26 11:24:18;;;;;;;;;8.00;6.67;;;;;19.94;63.45;98880.94;4832995;28;102564;-89
2021/09/26 11:27:00;;;;;;;;;6.33;5.00;;;;;19.96;63.29;98881.50;4839519;28;102386;-89
2021/09/26 11:29:29;;;;;;;;;7.67;7.33;;;;;19.99;63.01;98880.97;4844355;28;103143;-91
2021/09/26 11:31:57;;;;;;;;;7.33;7.00;;;;;20.03;62.71;98884.06;4853826;28;109440;-91
2021/09/26 11:34:37;;;;;;;;;8.00;8.00;;;;;20.07;62.75;98874.22;4835680;28;102608;-92
2021/09/26 11:37:07;;;;;;;;;7.67;6.67;;;;;20.09;62.51;98883.03;4841024;28;102131;-90